Flight Track Log - Related Links

Times and Time Zones

All times are in EST time to prevent confusion due to time zone crossing. See the CES5160 flight status page for this flight to view local times or setup timezone preferences in your user account.


Time Position Orientation Groundspeed Altitude Reporting Facility
EST Latitude Longitude Course Direction KTS MPH feet Rate Location/Type
Tue 09:25:00 AM 36.1052 118.2710 342° North  Level Estimated
Tue 09:26:00 AM 36.1818 118.2402 342° North  Level Estimated
Tue 09:27:00 AM 36.2584 118.2094 342° North  Level Estimated
Tue 09:28:00 AM 36.3350 118.1786 342° North  Level Estimated
Tue 09:29:00 AM 36.4116 118.1477 342° North  Level Estimated
Tue 09:30:00 AM 36.4882 118.1167 342° North  Level Estimated
Tue 09:31:00 AM 36.5647 118.0856 342° North  Level Estimated
Tue 09:32:00 AM 36.6413 118.0545 342° North  Level Estimated
Tue 09:33:00 AM 36.7178 118.0233 342° North  Level Estimated
Tue 09:34:00 AM 36.7943 117.9921 342° North  Level Estimated
Tue 09:35:00 AM 36.8709 117.9608 342° North  Level Estimated
Tue 09:36:00 AM 36.9474 117.9295 342° North  Level Estimated
Tue 09:37:00 AM 37.0239 117.8980 342° North  Level Estimated
Tue 09:38:00 AM 37.1004 117.8666 342° North  Level Estimated
Tue 09:39:00 AM 37.1769 117.8350 342° North  Level Estimated
Tue 09:40:00 AM 37.2534 117.8034 342° North  Level Estimated
Tue 09:41:00 AM 37.3298 117.7717 342° North  Level Estimated
Tue 09:42:00 AM 37.4063 117.7400 342° North  Level Estimated
Tue 09:43:00 AM 37.4828 117.7082 342° North  Level Estimated
Tue 09:44:00 AM 37.5592 117.6763 342° North  Level Estimated
Tue 09:45:00 AM 37.6357 117.6444 342° North  Level Estimated
Tue 09:46:00 AM 37.7121 117.6124 342° North  Level Estimated
Tue 09:47:00 AM 37.7885 117.5803 342° North  Level Estimated
Tue 09:48:00 AM 37.8649 117.5482 342° North  Level Estimated
Tue 09:49:00 AM 37.9413 117.5160 342° North  Level Estimated
Tue 09:50:00 AM 38.0177 117.4837 342° North  Level Estimated
Tue 09:51:00 AM 38.0941 117.4514 342° North  Level Estimated
Tue 09:52:00 AM 38.1705 117.4190 342° North  Level Estimated
Tue 09:53:00 AM 38.2469 117.3865 342° North  Level Estimated
Tue 09:54:00 AM 38.3232 117.3540 342° North  Level Estimated
Tue 09:55:00 AM 38.3996 117.3214 341° North  Level Estimated
Tue 09:56:00 AM 38.4759 117.2887 341° North  Level Estimated
Tue 09:57:00 AM 38.5523 117.2559 341° North  Level Estimated
Tue 09:58:00 AM 38.6286 117.2231 341° North  Level Estimated
Tue 09:59:00 AM 38.7049 117.1902 341° North  Level Estimated
Tue 10:00:00 AM 38.7812 117.1573 341° North  Level Estimated
Tue 10:01:00 AM 38.8576 117.1242 341° North  Level Estimated
Tue 10:02:00 AM 38.9338 117.0911 341° North  Level Estimated
Tue 10:03:00 AM 39.0101 117.0580 341° North  Level Estimated
Tue 10:04:00 AM 39.0864 117.0247 341° North  Level Estimated
Tue 10:05:00 AM 39.1627 116.9914 341° North  Level Estimated
Tue 10:06:00 AM 39.2389 116.9580 341° North  Level Estimated
Tue 10:07:00 AM 39.3151 116.9246 341° North  Level Estimated
Tue 10:08:00 AM 39.3914 116.8910 341° North  Level Estimated
Tue 10:09:00 AM 39.4676 116.8574 341° North  Level Estimated
Tue 10:10:00 AM 39.5438 116.8238 341° North  Level Estimated
Tue 10:11:00 AM 39.6200 116.7900 341° North  Level Estimated
Tue 10:12:00 AM 39.6941 116.7571 341° North  Level Estimated
Tue 10:13:00 AM 39.7683 116.7241 341° North  Level Estimated
Tue 10:14:00 AM 39.8424 116.6911 341° North  Level Estimated
Tue 10:15:00 AM 39.9165 116.6580 341° North  Level Estimated
Tue 10:16:00 AM 39.9906 116.6248 341° North  Level Estimated
Tue 10:17:00 AM 40.0647 116.5915 341° North  Level Estimated

Login

Don't have an account? Register now (free) for customized features, flight alerts, and more!